Laukaa, Finland
Kieli:  Suomi
CurCond
Päivitetty25/09/2020 02:47 
 

Lähistön Lentoasemien Säätiloja:

 

EFJY - Jyvaskyla (mil/C,) Finland
Etäisyys Sääasemalta: PKo 21km
Päivitetty: 25/09/2020 02:20
Puolipilvistä
Puolipilvistä
 Tuulen suunta Ka
Tuuli: Ka 13 km/h
Lämpötila: 11°C
Kastepiste: 11°C
Ilmankosteus: 100%
Ilmanpaine: 1004 hPa
Pilvisyys: Puolipilvistä
Näkyvyys: 8 km
2020/09/24 23:20 EFJY 242320Z AUTO 14007KT 8000 NSC 11/11 Q1004
EFHA - Halli (fin-Afb), Finland
Etäisyys Sääasemalta: Lo 56km
Päivitetty: 25/09/2020 02:20
Selkeätä
Selkeätä
 Tuulen suunta EKa
Tuuli: EKa 11 km/h
Lämpötila: 14°C
Kastepiste: 13°C
Ilmankosteus: 94%
Ilmanpaine: 1004 hPa
Yhteenveto: Selkeätä
Näkyvyys: Enemmän Kuin 10 km
2020/09/24 23:20 EFHA 242320Z AUTO 16006KT CAVOK 14/13 Q1004
EFMI - Mikkeli, Finland
Etäisyys Sääasemalta: IKa 105km
Päivitetty: 25/09/2020 02:20
Selkeätä
Selkeätä
 Tuulen suunta Ka
Tuuli: Ka 6 km/h
Lämpötila: 12°C
Kastepiste: 10°C
Ilmankosteus: 88%
Ilmanpaine: 1006 hPa
Yhteenveto: Selkeätä
Näkyvyys: Enemmän Kuin 10 km
2020/09/24 23:20 EFMI 242320Z AUTO 13003KT CAVOK 12/10 Q1006
 
EFTP - Tampere/Pirkkala, Finland
Etäisyys Sääasemalta: Lo 135km
Päivitetty: 25/09/2020 02:20
Lähistöllä Sadekuuroja, Ukkospilviä
Lähistöllä Sadekuuroja, Ukkospilviä
 Tuulen suunta EKa
Tuuli: EKa 11 km/h
Lämpötila: 15°C
Kastepiste: 13°C
Ilmankosteus: 88%
Ilmanpaine: 1003 hPa
Yhteenveto: Lähistöllä Sadekuuroja
Pilvisyys: Ukkospilviä
Näkyvyys: 10 km
Pilvisyystiedot: Enimmäkseen pilvistä 1402 m
2020/09/24 23:20 EFTP 242320Z AUTO 15006KT 9999 VCSH BKN046 //////CB 15/13 Q1003
EFKU - Kuopio (mil/Civ), Finland
Etäisyys Sääasemalta: Ko 146km
Päivitetty: 25/09/2020 02:20
Selkeätä
Selkeätä
 Tuulen suunta EKa
Tuuli: EKa 20 km/h
Lämpötila: 13°C
Kastepiste: 12°C
Ilmankosteus: 94%
Ilmanpaine: 1006 hPa
Yhteenveto: Selkeätä
Näkyvyys: Enemmän Kuin 10 km
2020/09/24 23:20 EFKU 242320Z AUTO 16011KT CAVOK 13/12 Q1006
EFSI - Seinajoki-Ilmajo, Finland
Etäisyys Sääasemalta: LLu 149km
Päivitetty: 25/09/2020 02:20
Selkeätä
Selkeätä
 Tuulen suunta EKa
Tuuli: EKa 9 km/h
Lämpötila: 15°C
Kastepiste: 14°C
Ilmankosteus: 94%
Ilmanpaine: 1001 hPa
Yhteenveto: Selkeätä
Näkyvyys: Enemmän Kuin 10 km
2020/09/24 23:20 EFSI 242320Z AUTO 15005KT 120V190 CAVOK 15/14 Q1001